Time;durP1;ratioP1;P1;durP2;ratioP2;P2;SDS_P1;SDS_P2;PMS_P1;PMS_P2;Temp;Humidity;BMP_temperature;BMP_pressure;BME280_temperature;BME280_humidity;BME280_pressure;Samples;Min_cycle;Max_cycle;Signal;HPM_P1;HPM_P2
2023/03/23 00:01:56;;;;;;;2.00;1.13;;;12.00;71.40;;;;;;5037501;28;20033;-65
2023/03/23 00:04:22;;;;;;;1.83;1.23;;;12.00;72.50;;;;;;5026356;28;20501;-66
2023/03/23 00:06:49;;;;;;;2.67;1.35;;;12.00;73.70;;;;;;5036228;28;20035;-65
2023/03/23 00:09:15;;;;;;;2.38;1.52;;;11.90;73.90;;;;;;5026138;28;20087;-66
2023/03/23 00:11:41;;;;;;;1.90;0.98;;;11.90;74.30;;;;;;5026634;28;20095;-66
2023/03/23 00:14:12;;;;;;;3.05;1.42;;;11.80;73.80;;;;;;5026480;28;20052;-66
2023/03/23 00:16:40;;;;;;;3.42;1.23;;;11.80;75.00;;;;;;5024180;28;20032;-66
2023/03/23 00:19:08;;;;;;;3.47;1.60;;;11.70;75.60;;;;;;5026397;28;20067;-66
2023/03/23 00:21:38;;;;;;;2.33;1.50;;;11.60;75.70;;;;;;5032374;28;20038;-66
2023/03/23 00:24:15;;;;;;;2.15;1.25;;;11.50;75.90;;;;;;5026480;28;20108;-64
2023/03/23 00:26:43;;;;;;;2.08;1.35;;;11.50;76.30;;;;;;5015743;28;20691;-66
2023/03/23 00:29:13;;;;;;;4.40;1.83;;;11.40;77.50;;;;;;5026274;28;20025;-66
2023/03/23 00:31:40;;;;;;;2.20;1.52;;;11.40;77.60;;;;;;5020407;28;20060;-66
2023/03/23 00:34:05;;;;;;;2.83;1.30;;;11.30;76.90;;;;;;5026280;28;20029;-66
2023/03/23 00:36:34;;;;;;;2.13;1.30;;;11.20;80.00;;;;;;5043187;28;20021;-67
2023/03/23 00:39:03;;;;;;;1.60;1.17;;;11.10;78.70;;;;;;5045824;28;20063;-67
2023/03/23 00:41:29;;;;;;;2.13;1.33;;;11.10;78.40;;;;;;5024177;28;20120;-65
2023/03/23 00:43:57;;;;;;;4.63;1.70;;;11.10;79.60;;;;;;5025830;28;20448;-65
2023/03/23 00:46:24;;;;;;;1.92;1.30;;;11.00;80.20;;;;;;5058400;28;20107;-66
2023/03/23 00:48:50;;;;;;;1.63;1.10;;;11.00;81.20;;;;;;5045299;28;20759;-65
2023/03/23 00:51:17;;;;;;;2.45;1.05;;;10.90;81.00;;;;;;5024970;28;20034;-66
2023/03/23 00:53:43;;;;;;;1.73;1.20;;;10.90;80.70;;;;;;5037876;28;20029;-65
2023/03/23 00:56:09;;;;;;;1.67;1.30;;;10.80;80.70;;;;;;5043978;28;20497;-65
2023/03/23 00:58:35;;;;;;;1.77;1.30;;;10.80;81.50;;;;;;5013560;28;20021;-65
2023/03/23 01:01:01;;;;;;;3.70;1.35;;;10.80;80.20;;;;;;5032793;28;20064;-65
2023/03/23 01:03:27;;;;;;;1.40;1.10;;;10.70;81.20;;;;;;5028563;28;20646;-61
2023/03/23 01:05:54;;;;;;;2.65;1.40;;;10.70;82.50;;;;;;5036481;28;20373;-75
2023/03/23 01:08:21;;;;;;;4.25;1.20;;;10.60;83.30;;;;;;5027680;28;20503;-52
2023/03/23 01:10:47;;;;;;;2.95;1.20;;;10.60;82.60;;;;;;5032336;28;20143;-53
2023/03/23 01:13:13;;;;;;;3.50;1.73;;;10.60;82.80;;;;;;5047198;28;20108;-53
2023/03/23 01:15:39;;;;;;;2.80;1.70;;;10.60;84.20;;;;;;5027046;28;20113;-53
2023/03/23 01:18:05;;;;;;;2.00;1.20;;;10.50;88.90;;;;;;5047236;28;20037;-52
2023/03/23 01:20:31;;;;;;;2.92;1.48;;;10.50;88.50;;;;;;5026551;28;20653;-54
2023/03/23 01:23:00;;;;;;;3.28;1.52;;;10.50;87.30;;;;;;5047397;28;20474;-52
2023/03/23 01:25:30;;;;;;;2.78;1.60;;;10.50;86.10;;;;;;5036874;28;20439;-52
2023/03/23 01:27:56;;;;;;;1.88;1.33;;;10.50;86.00;;;;;;5028164;28;20138;-53
2023/03/23 01:30:22;;;;;;;1.95;1.40;;;10.50;85.90;;;;;;5045413;28;20071;-50
2023/03/23 01:32:49;;;;;;;2.03;1.33;;;10.50;85.40;;;;;;5031362;28;20460;-50
2023/03/23 01:35:14;;;;;;;2.20;1.10;;;10.40;86.90;;;;;;5046637;28;20032;-52
2023/03/23 01:37:40;;;;;;;1.65;1.20;;;10.40;85.40;;;;;;5031880;28;20029;-52
2023/03/23 01:40:06;;;;;;;2.28;1.27;;;10.40;86.40;;;;;;5031902;28;20034;-51
2023/03/23 01:42:38;;;;;;;1.48;1.15;;;10.30;86.90;;;;;;5050322;28;20146;-51
2023/03/23 01:45:31;;;;;;;2.65;1.30;;;10.30;86.30;;;;;;5025941;28;20109;-52
2023/03/23 01:48:32;;;;;;;2.25;1.23;;;10.30;89.40;;;;;;5009998;28;20069;-52
2023/03/23 01:51:13;;;;;;;2.10;1.23;;;10.20;86.20;;;;;;5011709;28;20108;-51
2023/03/23 01:53:42;;;;;;;3.25;1.27;;;10.20;86.50;;;;;;5012971;28;20036;-53
2023/03/23 01:56:11;;;;;;;2.30;1.30;;;10.20;85.60;;;;;;5030996;28;20029;-53
2023/03/23 01:58:38;;;;;;;2.53;1.35;;;10.10;85.20;;;;;;5044648;28;20025;-53
2023/03/23 02:01:07;;;;;;;1.40;1.25;;;10.10;86.60;;;;;;5031246;28;20377;-50
2023/03/23 02:03:35;;;;;;;2.33;1.40;;;10.00;88.40;;;;;;5045011;28;20027;-52
2023/03/23 02:06:02;;;;;;;2.00;1.30;;;10.00;88.50;;;;;;5038302;28;20059;-51
2023/03/23 02:08:29;;;;;;;2.35;1.20;;;9.90;88.70;;;;;;5029133;28;20587;-54
2023/03/23 02:10:55;;;;;;;2.13;1.20;;;9.90;88.30;;;;;;5029795;28;20112;-53
2023/03/23 02:13:21;;;;;;;2.17;1.38;;;9.90;90.10;;;;;;5046243;28;20500;-53
2023/03/23 02:16:11;;;;;;;2.03;1.55;;;9.80;90.00;;;;;;5030742;28;20021;-51
2023/03/23 02:18:49;;;;;;;4.28;1.83;;;9.80;91.20;;;;;;5006413;28;20379;-54
2023/03/23 02:21:26;;;;;;;3.47;1.45;;;9.80;91.00;;;;;;5011203;28;20044;-54
2023/03/23 02:24:13;;;;;;;2.30;1.42;;;9.80;90.30;;;;;;5015159;28;20049;-49
2023/03/23 02:26:54;;;;;;;2.22;1.40;;;9.80;90.80;;;;;;5030944;28;20060;-53
2023/03/23 02:29:52;;;;;;;2.35;1.45;;;9.80;91.20;;;;;;5019054;28;20029;-54
2023/03/23 02:32:44;;;;;;;3.25;1.20;;;9.90;91.00;;;;;;5010683;28;20125;-55
2023/03/23 02:35:28;;;;;;;1.90;1.20;;;9.80;90.80;;;;;;5025660;28;20061;-52
2023/03/23 02:38:11;;;;;;;5.35;1.48;;;9.80;90.80;;;;;;5010693;28;20034;-51
2023/03/23 02:40:42;;;;;;;1.58;1.15;;;9.80;91.60;;;;;;5010786;28;20026;-54
2023/03/23 02:43:13;;;;;;;1.40;1.30;;;9.90;91.00;;;;;;5047333;28;20239;-52
2023/03/23 02:45:41;;;;;;;2.08;1.40;;;9.80;91.00;;;;;;5030502;28;20029;-52
2023/03/23 02:48:08;;;;;;;1.42;1.13;;;9.90;91.60;;;;;;5046384;28;20111;-50
2023/03/23 02:50:36;;;;;;;1.77;1.25;;;9.90;90.90;;;;;;5030326;28;20049;-54
2023/03/23 02:53:06;;;;;;;2.55;1.48;;;9.90;91.30;;;;;;5049762;28;20674;-51
2023/03/23 02:55:32;;;;;;;1.50;1.20;;;9.90;91.20;;;;;;5010387;28;20040;-55
2023/03/23 02:58:01;;;;;;;1.50;1.40;;;9.90;92.70;;;;;;5048982;28;20025;-54
2023/03/23 03:00:27;;;;;;;2.08;1.40;;;10.00;91.80;;;;;;5028259;28;20695;-56
2023/03/23 03:02:55;;;;;;;2.40;1.25;;;10.10;91.60;;;;;;5049186;28;20108;-55
2023/03/23 03:05:45;;;;;;;1.92;1.50;;;10.20;91.40;;;;;;5030052;28;20043;-51
2023/03/23 03:08:21;;;;;;;3.60;1.50;;;10.20;91.20;;;;;;5007426;28;20037;-53
2023/03/23 03:11:07;;;;;;;3.45;1.50;;;10.30;90.50;;;;;;5029973;28;20410;-55
2023/03/23 03:13:42;;;;;;;1.88;1.05;;;10.40;90.70;;;;;;5011967;28;20382;-54
2023/03/23 03:16:34;;;;;;;1.25;1.05;;;10.50;90.80;;;;;;5029648;28;20021;-52
2023/03/23 03:19:19;;;;;;;1.13;0.95;;;10.50;91.30;;;;;;5015473;28;20013;-53
2023/03/23 03:21:47;;;;;;;5.18;1.38;;;10.60;91.20;;;;;;5010109;28;20126;-51
2023/03/23 03:24:17;;;;;;;1.80;1.30;;;10.60;91.20;;;;;;5037889;28;20046;-55
2023/03/23 03:26:47;;;;;;;4.68;1.67;;;10.60;91.60;;;;;;5049301;28;20033;-53
2023/03/23 03:29:17;;;;;;;1.88;1.30;;;10.70;91.30;;;;;;5027441;28;20052;-51
2023/03/23 03:31:47;;;;;;;1.60;1.23;;;10.70;91.30;;;;;;5038508;28;20413;-51
2023/03/23 03:34:17;;;;;;;1.85;1.50;;;10.80;90.70;;;;;;5016751;28;20037;-52
2023/03/23 03:36:45;;;;;;;2.90;1.05;;;10.80;90.90;;;;;;5049106;28;20103;-53
2023/03/23 03:39:14;;;;;;;1.60;1.10;;;10.80;90.60;;;;;;5027358;28;20434;-50
2023/03/23 03:41:41;;;;;;;2.08;1.25;;;10.90;90.80;;;;;;5049056;28;20040;-50
2023/03/23 03:44:07;;;;;;;1.65;1.30;;;10.90;90.80;;;;;;5027664;28;20036;-51
2023/03/23 03:46:34;;;;;;;1.58;1.10;;;10.90;90.60;;;;;;5048394;28;20044;-51
2023/03/23 03:49:01;;;;;;;2.67;1.23;;;11.00;90.60;;;;;;5027577;28;20034;-51
2023/03/23 03:51:29;;;;;;;2.45;1.08;;;11.00;90.40;;;;;;5028858;28;20558;-52
2023/03/23 03:53:55;;;;;;;1.48;0.90;;;11.00;90.40;;;;;;5039931;28;20095;-53
2023/03/23 03:56:21;;;;;;;1.42;1.02;;;11.00;90.70;;;;;;5029000;28;20478;-54
2023/03/23 03:58:48;;;;;;;1.95;1.38;;;11.00;90.60;;;;;;5045911;28;20226;-52
2023/03/23 04:01:14;;;;;;;1.58;1.10;;;11.00;90.90;;;;;;5048268;28;20017;-51
2023/03/23 04:03:41;;;;;;;1.67;1.23;;;11.00;90.70;;;;;;5031841;28;20029;-52
2023/03/23 04:06:08;;;;;;;2.90;1.48;;;11.10;90.60;;;;;;5030737;28;20250;-51
2023/03/23 04:08:34;;;;;;;1.08;0.80;;;11.00;91.00;;;;;;5045916;28;20043;-54
2023/03/23 04:10:59;;;;;;;2.13;1.00;;;11.10;91.00;;;;;;5048795;28;20021;-53
2023/03/23 04:13:25;;;;;;;1.63;1.33;;;11.00;91.10;;;;;;5029656;28;20033;-54
2023/03/23 04:15:51;;;;;;;1.73;1.20;;;11.10;91.10;;;;;;5048259;28;20028;-50
2023/03/23 04:18:17;;;;;;;1.67;1.25;;;11.10;91.10;;;;;;5028389;28;20026;-49
2023/03/23 04:20:46;;;;;;;2.35;1.25;;;11.10;91.70;;;;;;5048423;28;20374;-54
2023/03/23 04:23:14;;;;;;;1.17;1.00;;;11.10;91.40;;;;;;5027333;28;20104;-53
2023/03/23 04:25:41;;;;;;;3.17;1.15;;;11.10;91.50;;;;;;5048415;28;20143;-54
2023/03/23 04:28:09;;;;;;;1.50;1.13;;;11.10;91.60;;;;;;5026655;28;20164;-52
2023/03/23 04:30:36;;;;;;;2.28;1.35;;;11.10;91.70;;;;;;5046763;28;20028;-52
2023/03/23 04:33:02;;;;;;;2.90;1.30;;;11.10;91.70;;;;;;5028438;28;20022;-52
2023/03/23 04:35:29;;;;;;;2.05;1.38;;;11.10;92.50;;;;;;5032601;28;20033;-50
2023/03/23 04:37:55;;;;;;;1.75;1.33;;;11.10;92.20;;;;;;5047724;28;20036;-52
2023/03/23 04:40:21;;;;;;;1.67;1.25;;;11.10;92.60;;;;;;5037093;28;20029;-51
2023/03/23 04:42:48;;;;;;;2.90;1.88;;;11.10;92.80;;;;;;5028863;28;20033;-51
2023/03/23 04:45:21;;;;;;;3.83;1.95;;;11.00;92.90;;;;;;5045716;28;20112;-51
2023/03/23 04:47:53;;;;;;;4.18;2.38;;;11.00;93.30;;;;;;5008653;28;20218;-49
2023/03/23 04:50:23;;;;;;;3.60;2.40;;;11.00;93.50;;;;;;5036683;28;20080;-51
2023/03/23 04:52:51;;;;;;;2.72;1.85;;;11.00;94.00;;;;;;5024807;28;20113;-51
2023/03/23 04:55:17;;;;;;;2.17;1.92;;;11.00;94.60;;;;;;5027957;28;20017;-49
2023/03/23 04:57:43;;;;;;;2.75;1.52;;;11.00;95.20;;;;;;5029062;28;20615;-52
2023/03/23 05:00:15;;;;;;;4.93;1.90;;;10.90;95.50;;;;;;5048122;28;20467;-49
2023/03/23 05:02:42;;;;;;;1.67;1.48;;;10.90;95.90;;;;;;5012123;28;20054;-52
2023/03/23 05:05:10;;;;;;;2.30;1.80;;;10.90;96.70;;;;;;5039584;28;20030;-50
2023/03/23 05:07:37;;;;;;;2.10;1.30;;;10.90;97.10;;;;;;5027770;28;20029;-54
2023/03/23 05:10:04;;;;;;;2.38;1.20;;;10.90;97.70;;;;;;5048258;28;20025;-49
2023/03/23 05:12:29;;;;;;;3.85;1.40;;;10.90;98.20;;;;;;5030101;28;20063;-54
2023/03/23 05:14:55;;;;;;;2.22;1.55;;;10.80;99.10;;;;;;5051965;28;20033;-54
2023/03/23 05:17:23;;;;;;;1.67;1.20;;;10.80;99.70;;;;;;5032340;28;20056;-51
2023/03/23 05:19:53;;;;;;;1.40;1.30;;;10.70;99.60;;;;;;5011679;28;20018;-51
2023/03/23 05:22:20;;;;;;;3.97;1.42;;;10.70;99.90;;;;;;5051507;28;20021;-50
2023/03/23 05:24:46;;;;;;;3.38;1.30;;;10.70;99.90;;;;;;5049824;28;20112;-51
2023/03/23 05:27:12;;;;;;;1.63;1.25;;;10.70;99.90;;;;;;5030559;28;20430;-53
2023/03/23 05:29:40;;;;;;;2.05;1.20;;;10.70;99.90;;;;;;5030712;28;20045;-51
2023/03/23 05:32:07;;;;;;;1.33;1.20;;;10.70;99.90;;;;;;5050714;28;20417;-55
2023/03/23 05:34:34;;;;;;;3.63;1.50;;;10.70;99.90;;;;;;5030280;28;20041;-52
2023/03/23 05:37:01;;;;;;;2.15;1.60;;;10.70;99.90;;;;;;5050689;28;20077;-53
2023/03/23 05:39:27;;;;;;;2.75;1.60;;;10.70;99.90;;;;;;5029904;28;20025;-50
2023/03/23 05:41:54;;;;;;;4.20;1.60;;;10.70;99.90;;;;;;5051032;28;20457;-49
2023/03/23 05:44:20;;;;;;;2.53;1.70;;;10.70;99.90;;;;;;5029778;28;20072;-51
2023/03/23 05:46:46;;;;;;;2.03;1.40;;;10.70;99.90;;;;;;5041651;28;20049;-50
2023/03/23 05:49:12;;;;;;;1.95;1.50;;;10.70;99.90;;;;;;5033722;28;20107;-52
2023/03/23 05:51:37;;;;;;;3.70;1.60;;;10.80;99.90;;;;;;5050411;28;20509;-50
2023/03/23 05:54:03;;;;;;;3.17;1.73;;;10.80;99.90;;;;;;5029955;28;20387;-54
2023/03/23 05:56:30;;;;;;;4.30;1.52;;;10.80;99.90;;;;;;5049974;28;20140;-52
2023/03/23 05:58:56;;;;;;;2.10;1.48;;;10.80;99.90;;;;;;5029944;28;20033;-54
2023/03/23 06:01:23;;;;;;;1.45;1.35;;;10.80;99.90;;;;;;5050528;28;20036;-53
2023/03/23 06:03:51;;;;;;;4.13;1.60;;;10.90;99.90;;;;;;5033706;28;20020;-51
2023/03/23 06:06:17;;;;;;;2.05;1.25;;;10.90;99.90;;;;;;5030417;28;20043;-51
2023/03/23 06:08:43;;;;;;;3.28;1.60;;;10.90;99.90;;;;;;5048407;28;20489;-54
2023/03/23 06:11:08;;;;;;;4.10;1.67;;;10.90;99.90;;;;;;5050448;28;20280;-52
2023/03/23 06:13:34;;;;;;;3.28;1.83;;;10.90;99.90;;;;;;5025939;28;20041;-52
2023/03/23 06:15:59;;;;;;;4.30;2.05;;;11.00;99.90;;;;;;5028347;28;20030;-54
2023/03/23 06:18:26;;;;;;;5.35;1.63;;;11.00;99.90;;;;;;5031317;28;20087;-55
2023/03/23 06:20:52;;;;;;;3.60;1.92;;;11.00;99.90;;;;;;5049627;28;20493;-52
2023/03/23 06:23:18;;;;;;;2.10;1.88;;;11.00;99.90;;;;;;5027574;28;20098;-54
2023/03/23 06:25:44;;;;;;;2.55;1.67;;;11.00;99.90;;;;;;5029411;28;20477;-50
2023/03/23 06:28:10;;;;;;;2.33;1.52;;;11.00;99.90;;;;;;5044784;28;20029;-49
2023/03/23 06:30:36;;;;;;;4.97;1.98;;;11.00;99.90;;;;;;5030756;28;20030;-53
2023/03/23 06:33:05;;;;;;;3.88;1.95;;;11.00;99.90;;;;;;5046898;28;20075;-54
2023/03/23 06:35:31;;;;;;;3.75;1.80;;;10.90;99.90;;;;;;5014608;28;20087;-54
2023/03/23 06:38:01;;;;;;;7.47;1.92;;;10.90;99.90;;;;;;5046472;28;20095;-50
2023/03/23 06:40:27;;;;;;;2.08;1.40;;;10.90;99.90;;;;;;5011814;28;20029;-51
2023/03/23 06:42:53;;;;;;;3.95;1.95;;;10.90;99.90;;;;;;5027414;28;20041;-55
2023/03/23 06:45:19;;;;;;;2.70;1.83;;;10.90;99.90;;;;;;5030658;28;20033;-54
2023/03/23 06:47:45;;;;;;;2.83;1.25;;;10.90;99.90;;;;;;5048444;28;20056;-54
2023/03/23 06:50:11;;;;;;;2.00;1.38;;;10.90;99.90;;;;;;5027876;28;20490;-55
2023/03/23 06:52:36;;;;;;;2.55;1.52;;;10.90;99.90;;;;;;5048038;28;20029;-54
2023/03/23 06:55:02;;;;;;;4.25;1.63;;;10.90;99.90;;;;;;5027833;28;20417;-54
2023/03/23 06:57:27;;;;;;;2.95;1.67;;;10.90;99.90;;;;;;5047903;28;20039;-55
2023/03/23 06:59:53;;;;;;;2.08;1.45;;;10.90;99.90;;;;;;5027764;28;20037;-53
2023/03/23 07:02:18;;;;;;;2.00;1.15;;;10.90;99.90;;;;;;5048290;28;20413;-53
2023/03/23 07:04:45;;;;;;;5.72;1.52;;;10.90;99.90;;;;;;5023292;28;20017;-54
2023/03/23 07:07:14;;;;;;;2.28;1.23;;;11.00;99.90;;;;;;5048780;28;20021;-62
2023/03/23 07:09:39;;;;;;;2.58;1.27;;;11.00;99.90;;;;;;5027262;28;20036;-62
2023/03/23 07:12:05;;;;;;;3.92;1.17;;;11.10;99.90;;;;;;5048064;28;20104;-66
2023/03/23 07:14:30;;;;;;;1.70;1.15;;;11.10;99.90;;;;;;5027435;28;20052;-67
2023/03/23 07:16:56;;;;;;;2.35;1.40;;;11.20;99.90;;;;;;5047560;28;20083;-67
2023/03/23 07:19:21;;;;;;;3.95;1.55;;;11.20;99.90;;;;;;5027549;28;20472;-67
2023/03/23 07:21:47;;;;;;;3.83;1.77;;;11.30;99.90;;;;;;5047799;28;20021;-66
2023/03/23 07:24:16;;;;;;;2.17;1.50;;;11.40;99.90;;;;;;5037380;28;20032;-67
2023/03/23 07:26:42;;;;;;;5.88;1.92;;;11.50;99.90;;;;;;5027348;28;20725;-68
2023/03/23 07:29:08;;;;;;;16.52;8.98;;;11.60;99.90;;;;;;5031837;28;20124;-67
2023/03/23 07:31:34;;;;;;;10.68;5.90;;;11.60;99.90;;;;;;5036701;28;20056;-67
2023/03/23 07:34:00;;;;;;;8.93;5.00;;;11.60;99.90;;;;;;5034761;28;20021;-68
2023/03/23 07:36:26;;;;;;;5.13;3.33;;;11.60;99.90;;;;;;5028450;28;20037;-69
2023/03/23 07:38:52;;;;;;;8.80;3.10;;;11.70;99.90;;;;;;5045552;28;20237;-70
2023/03/23 07:41:18;;;;;;;2.75;2.25;;;11.80;99.90;;;;;;5038543;28;20164;-67
2023/03/23 07:43:43;;;;;;;3.97;2.40;;;11.80;99.90;;;;;;5045537;28;20036;-67
2023/03/23 07:46:09;;;;;;;2.17;1.73;;;11.80;99.90;;;;;;5047921;28;20033;-67
2023/03/23 07:48:34;;;;;;;4.80;1.90;;;11.80;99.90;;;;;;5031800;28;20021;-67
2023/03/23 07:51:00;;;;;;;3.65;1.95;;;11.80;99.90;;;;;;5048128;28;20040;-67
2023/03/23 07:53:25;;;;;;;5.97;3.17;;;11.90;99.90;;;;;;5030223;28;20025;-65
2023/03/23 07:55:51;;;;;;;5.47;2.63;;;11.90;99.90;;;;;;5048277;28;20025;-67
2023/03/23 07:58:19;;;;;;;15.90;5.28;;;12.00;99.90;;;;;;5030084;28;22730;-67
2023/03/23 08:00:46;;;;;;;18.85;7.72;;;12.00;99.90;;;;;;5049114;28;20024;-68
2023/03/23 08:03:12;;;;;;;20.73;7.53;;;12.00;99.90;;;;;;5027895;28;20120;-68
2023/03/23 08:05:37;;;;;;;11.35;5.43;;;12.00;99.90;;;;;;5030888;28;20493;-67
2023/03/23 08:08:03;;;;;;;12.73;4.93;;;12.00;99.90;;;;;;5045922;28;20033;-67
2023/03/23 08:10:29;;;;;;;15.10;6.03;;;12.10;99.90;;;;;;5048375;28;20027;-67
2023/03/23 08:12:56;;;;;;;13.80;5.50;;;12.30;99.90;;;;;;5029130;28;20021;-67
2023/03/23 08:15:22;;;;;;;13.80;6.00;;;12.30;99.90;;;;;;5046554;28;20044;-67
2023/03/23 08:17:50;;;;;;;13.50;4.80;;;12.40;99.90;;;;;;5028660;28;20076;-67
2023/03/23 08:20:18;;;;;;;12.20;5.72;;;12.40;99.90;;;;;;5027177;28;20196;-67
2023/03/23 08:22:45;;;;;;;11.77;5.60;;;12.40;99.90;;;;;;5047995;28;20504;-67
2023/03/23 08:25:14;;;;;;;13.20;5.85;;;12.30;99.90;;;;;;5026733;28;20033;-67
2023/03/23 08:27:43;;;;;;;17.75;8.90;;;12.20;99.90;;;;;;5047945;28;20129;-68
2023/03/23 08:30:11;;;;;;;4.90;3.30;;;12.20;99.90;;;;;;5026880;28;20030;-67
2023/03/23 08:32:38;;;;;;;5.07;2.95;;;12.20;99.90;;;;;;5048019;28;20041;-68
2023/03/23 08:35:04;;;;;;;4.10;2.30;;;12.20;99.90;;;;;;5026990;28;20447;-67
2023/03/23 08:37:30;;;;;;;5.90;4.53;;;12.30;99.90;;;;;;5047371;28;20094;-67
2023/03/23 08:39:59;;;;;;;4.07;2.78;;;12.30;99.90;;;;;;5027106;28;20026;-67
2023/03/23 08:42:25;;;;;;;6.05;2.45;;;12.40;99.90;;;;;;5047883;28;20415;-67
2023/03/23 08:44:51;;;;;;;3.17;2.03;;;12.40;99.90;;;;;;5027371;28;20118;-67
2023/03/23 08:47:17;;;;;;;3.20;1.83;;;12.50;99.90;;;;;;5051559;28;20188;-67
2023/03/23 08:49:44;;;;;;;2.92;2.00;;;12.60;99.90;;;;;;5030994;28;20100;-67
2023/03/23 08:52:09;;;;;;;2.60;1.77;;;12.60;99.90;;;;;;5051358;28;20025;-68
2023/03/23 08:54:35;;;;;;;4.80;2.70;;;12.70;99.90;;;;;;5031086;28;20045;-67
2023/03/23 08:57:01;;;;;;;4.38;2.67;;;12.70;99.90;;;;;;5051306;28;20044;-67
2023/03/23 08:59:27;;;;;;;3.45;2.47;;;12.80;99.90;;;;;;5030599;28;20038;-67
2023/03/23 09:01:53;;;;;;;2.97;2.08;;;12.80;99.90;;;;;;5051206;28;20454;-67
2023/03/23 09:04:19;;;;;;;3.65;2.70;;;12.90;99.90;;;;;;5030690;28;20030;-67
2023/03/23 09:06:45;;;;;;;4.82;3.33;;;12.90;99.90;;;;;;5047856;28;20025;-67
2023/03/23 09:09:11;;;;;;;3.95;3.20;;;12.80;99.90;;;;;;5040398;28;20032;-67
2023/03/23 09:11:37;;;;;;;3.33;2.60;;;12.90;99.90;;;;;;5032193;28;20272;-67
2023/03/23 09:14:05;;;;;;;5.50;3.60;;;12.80;99.90;;;;;;5049077;28;20049;-67
2023/03/23 09:16:32;;;;;;;4.47;2.33;;;12.90;99.90;;;;;;5031598;28;20095;-67
2023/03/23 09:18:58;;;;;;;1.85;1.73;;;12.90;99.90;;;;;;5049320;28;20112;-67
2023/03/23 09:21:25;;;;;;;2.33;1.70;;;13.10;99.90;;;;;;5032405;28;20125;-67
2023/03/23 09:23:51;;;;;;;5.28;3.55;;;13.20;99.90;;;;;;5049014;28;20500;-67
2023/03/23 09:26:17;;;;;;;4.32;2.30;;;13.50;99.90;;;;;;5051452;28;20051;-67
2023/03/23 09:28:44;;;;;;;4.80;2.08;;;13.80;99.90;;;;;;5036291;28;20100;-67
2023/03/23 09:31:10;;;;;;;3.85;2.00;;;14.00;99.90;;;;;;5045077;28;20115;-66
2023/03/23 09:33:36;;;;;;;2.65;2.00;;;14.10;99.90;;;;;;5034809;28;20112;-67
2023/03/23 09:36:04;;;;;;;4.15;3.00;;;14.10;99.90;;;;;;5051531;28;20116;-67
2023/03/23 09:38:34;;;;;;;2.33;1.67;;;14.10;99.90;;;;;;5034089;28;20090;-67
2023/03/23 09:41:35;;;;;;;4.63;2.60;;;14.20;99.90;;;;;;5051299;28;20013;-67
2023/03/23 09:44:20;;;;;;;3.08;2.03;;;14.20;99.90;;;;;;5026882;28;20086;-67
2023/03/23 09:47:04;;;;;;;4.85;1.98;;;14.30;99.90;;;;;;5011383;28;20572;-67
2023/03/23 09:49:42;;;;;;;3.85;2.17;;;14.30;99.90;;;;;;5034839;28;20037;-67
2023/03/23 09:52:14;;;;;;;4.93;3.22;;;14.30;99.90;;;;;;5011193;28;20101;-67
2023/03/23 09:54:43;;;;;;;3.13;2.22;;;14.40;99.90;;;;;;5023600;28;20039;-68
2023/03/23 09:57:51;;;;;;;5.75;3.40;;;14.50;99.90;;;;;;5048221;28;20509;-67
2023/03/23 10:00:31;;;;;;;4.75;3.22;;;14.70;99.90;;;;;;5045691;28;20025;-67
2023/03/23 10:03:11;;;;;;;4.97;3.25;;;14.70;99.90;;;;;;5013006;28;20068;-67
2023/03/23 10:05:42;;;;;;;4.00;2.42;;;14.80;99.90;;;;;;5024509;28;20036;-67
2023/03/23 10:08:31;;;;;;;2.08;1.60;;;14.90;99.90;;;;;;5030120;28;20044;-67
2023/03/23 10:11:02;;;;;;;2.45;1.90;;;15.00;99.40;;;;;;5050640;28;20028;-67
2023/03/23 10:13:59;;;;;;;2.53;1.15;;;15.10;99.90;;;;;;5017318;28;20519;-68
2023/03/23 10:16:27;;;;;;;;;;;15.30;96.70;;;;;;5011540;28;20116;-67
2023/03/23 10:18:58;;;;;;;1.10;1.00;;;15.50;96.20;;;;;;5047922;28;19916;-68
2023/03/23 10:21:26;;;;;;;1.73;1.20;;;15.70;97.00;;;;;;5010825;28;20026;-67
2023/03/23 10:24:09;;;;;;;1.88;1.15;;;15.80;95.50;;;;;;5047572;28;20366;-67
2023/03/23 10:27:13;;;;;;;1.88;1.17;;;15.80;93.00;;;;;;5010763;28;20037;-67
2023/03/23 10:30:03;;;;;;;3.15;1.27;;;15.70;92.10;;;;;;5033491;28;20493;-67
2023/03/23 10:32:43;;;;;;;1.92;1.30;;;15.60;92.00;;;;;;5010236;28;20053;-67
2023/03/23 10:35:20;;;;;;;2.53;1.00;;;15.60;93.00;;;;;;5026495;28;20083;-67
2023/03/23 10:37:55;;;;;;;1.55;1.02;;;15.70;93.00;;;;;;5010393;28;20089;-67
2023/03/23 10:40:26;;;;;;;2.15;0.95;;;15.80;90.80;;;;;;5028171;28;20029;-67
2023/03/23 10:42:52;;;;;;;1.85;1.23;;;15.80;90.50;;;;;;5010481;28;20350;-67
2023/03/23 10:45:24;;;;;;;2.15;1.50;;;16.00;91.60;;;;;;5028003;28;20040;-67
2023/03/23 10:47:56;;;;;;;2.92;1.13;;;16.10;90.10;;;;;;5010289;28;20436;-67
2023/03/23 10:50:26;;;;;;;1.98;1.35;;;16.10;89.60;;;;;;5028208;28;20504;-67
2023/03/23 10:52:53;;;;;;;1.75;1.23;;;16.20;89.70;;;;;;5010195;28;20026;-67
2023/03/23 10:55:22;;;;;;;1.77;1.00;;;16.30;87.70;;;;;;5027808;28;20028;-67
2023/03/23 10:58:02;;;;;;;3.05;1.13;;;16.50;84.00;;;;;;5049403;28;20025;-67
2023/03/23 11:00:29;;;;;;;1.10;0.90;;;16.50;78.60;;;;;;5049611;28;20285;-67
2023/03/23 11:02:59;;;;;;;1.75;1.25;;;16.50;82.20;;;;;;5028824;28;20516;-67
2023/03/23 11:05:33;;;;;;;1.55;1.17;;;16.60;82.10;;;;;;5023721;28;20040;-67
2023/03/23 11:08:01;;;;;;;1.17;1.08;;;16.70;82.00;;;;;;5008020;28;20048;-66
2023/03/23 11:10:57;;;;;;;1.20;0.90;;;16.70;79.60;;;;;;5048575;28;20102;-67
2023/03/23 11:13:29;;;;;;;2.00;1.20;;;16.70;76.80;;;;;;5018003;28;20033;-67
2023/03/23 11:15:55;;;;;;;3.42;1.15;;;16.60;79.10;;;;;;5048339;28;20501;-68
2023/03/23 11:18:23;;;;;;;2.05;1.00;;;16.50;76.50;;;;;;5031139;28;20043;-67
2023/03/23 11:20:54;;;;;;;1.23;0.90;;;16.40;75.80;;;;;;5049198;28;20175;-67
2023/03/23 11:23:27;;;;;;;1.00;0.80;;;16.40;77.40;;;;;;5030465;28;20032;-67
2023/03/23 11:26:20;;;;;;;1.15;0.98;;;16.40;74.80;;;;;;5049338;28;20033;-67
2023/03/23 11:28:57;;;;;;;1.30;1.10;;;16.60;75.60;;;;;;5020726;28;20098;-67
2023/03/23 11:31:28;;;;;;;1.42;1.00;;;16.50;73.10;;;;;;5041157;28;20376;-68
2023/03/23 11:34:02;;;;;;;3.75;1.20;;;16.40;71.80;;;;;;5022918;28;20024;-67
2023/03/23 11:36:37;;;;;;;1.63;1.10;;;16.50;72.60;;;;;;5009145;28;20045;-67
2023/03/23 11:39:24;;;;;;;1.60;0.70;;;16.50;72.40;;;;;;5046634;28;20443;-68
2023/03/23 11:41:49;;;;;;;2.92;1.52;;;16.60;73.70;;;;;;5008945;28;20038;-67
2023/03/23 11:44:15;;;;;;;2.90;1.40;;;16.70;71.50;;;;;;5045618;28;20032;-67
2023/03/23 11:46:58;;;;;;;2.03;1.20;;;16.70;68.70;;;;;;5029466;28;20094;-67
2023/03/23 11:49:45;;;;;;;1.38;1.05;;;16.70;69.00;;;;;;5034296;28;20022;-67
2023/03/23 11:52:29;;;;;;;;;;;16.70;67.70;;;;;;5009487;28;20041;-67
2023/03/23 11:55:22;;;;;;;2.05;1.15;;;16.70;66.70;;;;;;5029330;28;20440;-67
2023/03/23 11:57:48;;;;;;;2.70;0.88;;;16.70;66.20;;;;;;5008814;28;20084;-68
2023/03/23 12:00:22;;;;;;;3.03;1.27;;;16.80;69.00;;;;;;5026874;28;20036;-67
2023/03/23 12:03:02;;;;;;;2.67;1.45;;;17.00;69.80;;;;;;5021072;28;20497;-68
2023/03/23 12:05:36;;;;;;;2.22;1.20;;;17.10;69.00;;;;;;5018673;28;20102;-67
2023/03/23 12:08:21;;;;;;;1.40;0.95;;;17.20;67.70;;;;;;5023057;28;20025;-68
2023/03/23 12:11:12;;;;;;;4.43;1.55;;;17.20;64.00;;;;;;5008593;28;20541;-67
2023/03/23 12:14:00;;;;;;;2.83;1.38;;;17.10;62.30;;;;;;5008801;28;20485;-67
2023/03/23 12:16:39;;;;;;;2.20;1.10;;;17.10;65.30;;;;;;5014875;28;20033;-67
2023/03/23 12:19:37;;;;;;;1.73;1.10;;;17.10;61.70;;;;;;5048283;28;20370;-67
2023/03/23 12:22:32;;;;;;;1.48;0.80;;;17.10;60.10;;;;;;5024970;28;20029;-67
2023/03/23 12:25:15;;;;;;;1.38;1.00;;;17.20;62.60;;;;;;5008671;28;20169;-67
2023/03/23 12:28:03;;;;;;;1.35;0.88;;;17.10;59.50;;;;;;5021181;28;20033;-67
2023/03/23 12:30:45;;;;;;;1.30;1.10;;;17.10;62.60;;;;;;5008422;28;20049;-66
2023/03/23 12:33:33;;;;;;;2.15;1.00;;;17.10;61.40;;;;;;5027808;28;20029;-67
2023/03/23 12:36:16;;;;;;;1.13;1.00;;;17.20;60.90;;;;;;5007637;28;20026;-67
2023/03/23 12:38:58;;;;;;;3.15;0.85;;;17.30;59.40;;;;;;5048407;28;20029;-67
2023/03/23 12:41:33;;;;;;;1.42;1.33;;;17.20;59.90;;;;;;5014162;28;20270;-67
2023/03/23 12:44:00;;;;;;;3.83;1.17;;;17.20;59.80;;;;;;5048188;28;20021;-68
2023/03/23 12:46:37;;;;;;;1.95;1.10;;;17.20;58.40;;;;;;5030584;28;20021;-67
2023/03/23 12:49:35;;;;;;;3.08;1.02;;;17.10;58.20;;;;;;5048166;28;20489;-67
2023/03/23 12:52:18;;;;;;;1.17;0.93;;;17.10;57.50;;;;;;5024425;28;20455;-67
2023/03/23 12:54:59;;;;;;;2.65;1.25;;;17.10;57.00;;;;;;5007091;28;20038;-67
2023/03/23 12:57:33;;;;;;;1.52;1.23;;;17.10;57.50;;;;;;5046060;28;20508;-67
2023/03/23 13:00:10;;;;;;;2.10;1.27;;;17.10;56.20;;;;;;5028620;28;20051;-67
2023/03/23 13:02:50;;;;;;;2.45;1.55;;;17.10;54.80;;;;;;5020288;28;20061;-67
2023/03/23 13:05:22;;;;;;;1.92;1.33;;;17.10;57.40;;;;;;5030416;28;20086;-67
2023/03/23 13:08:01;;;;;;;2.08;1.08;;;17.10;56.10;;;;;;5026330;28;20100;-67